EST,Max TemperatureF,Mean TemperatureF,Min TemperatureF,Max Dew PointF,MeanDew PointF,Min DewpointF,Max Humidity, Mean Humidity, Min Humidity, Max Sea Level PressureIn, Mean Sea Level PressureIn, Min Sea Level PressureIn, Max VisibilityMiles, Mean VisibilityMiles, Min VisibilityMiles, Max Wind SpeedMPH, Mean Wind SpeedMPH, Max Gust SpeedMPH,PrecipitationIn, CloudCover, Events, WindDirDegrees
2012-12-1,79,67,55,60,57,54,94,73,44,30.22,30.18,30.13,10,10,10,17,8,22,0.00,1,,59
2012-12-2,81,70,60,63,60,56,97,76,43,30.24,30.19,30.14,10,10,10,17,7,23,0.00,1,,62
2012-12-3,80,70,60,63,56,49,96,70,35,30.26,30.20,30.15,10,10,10,16,8,,0.00,0,,62
2012-12-4,78,68,57,59,56,53,96,71,48,30.25,30.20,30.15,10,10,10,16,6,,0.00,4,,64
2012-12-5,77,67,57,63,60,55,93,80,59,30.16,30.09,30.04,10,10,10,8,4,,0.00,5,,64
2012-12-6,79,70,60,65,62,59,97,79,56,30.03,29.97,29.91,10,10,10,9,4,,0.00,4,Rain,64
2012-12-7,81,70,59,66,62,59,100,87,50,29.99,29.95,29.89,10,6,0,10,4,,0.05,4,Fog-Rain,66
2012-12-8,80,71,62,69,66,63,100,92,62,30.05,30.00,29.95,10,8,0,13,3,,0.06,2,Fog-Rain,96
2012-12-9,81,72,62,70,65,63,100,92,62,30.09,30.04,29.99,10,5,0,7,1,,0.00,3,Fog,92
2012-12-10,84,74,64,73,69,63,100,87,63,30.01,29.96,29.89,10,8,0,16,5,23,0.41,5,Fog-Rain,177
2012-12-11,78,74,69,73,71,68,100,94,76,30.04,29.96,29.92,10,8,1,13,6,,1.15,6,Rain-Thunderstorm,193
2012-12-12,78,74,69,73,71,66,100,94,78,30.08,30.04,29.99,10,7,0,15,6,25,0.24,6,Fog-Rain-Thunderstorm,185
2012-12-13,71,66,61,72,65,55,100,90,69,30.16,30.08,30.03,10,8,0,12,4,,0.00,7,Fog,350
2012-12-14,75,66,57,61,58,54,93,80,58,30.18,30.12,30.06,10,10,10,14,9,20,0.00,5,,35
2012-12-15,78,68,59,64,60,57,100,80,48,30.12,30.07,30.02,10,10,8,13,6,18,0.00,2,,70
2012-12-16,81,70,60,66,63,60,100,82,54,30.06,30.00,29.94,10,10,10,9,4,,0.00,2,,124
2012-12-17,80,72,63,68,65,62,100,85,58,29.99,29.95,29.91,10,10,5,17,4,,0.00,1,,207
2012-12-18,80,72,64,72,67,63,100,93,64,30.04,29.96,29.91,10,4,0,13,3,16,0.01,3,Fog,227
2012-12-19,79,67,55,61,55,51,93,71,39,30.11,30.06,30.03,10,10,9,6,2,,0.01,0,,42
2012-12-20,81,70,60,67,61,55,97,77,44,30.09,30.03,29.95,10,10,10,14,5,,0.00,1,,181
2012-12-21,71,60,48,68,50,29,94,68,27,30.22,30.08,29.97,10,9,1,17,11,26,0.34,3,Rain,321
2012-12-22,64,54,43,41,32,21,80,53,19,30.31,30.24,30.21,10,10,10,12,5,17,0.00,0,,2
2012-12-23,71,55,39,51,42,33,82,64,41,30.27,30.20,30.14,10,10,10,7,2,,0.00,0,,64
2012-12-24,73,62,51,58,54,49,93,75,51,30.14,30.07,29.99,10,10,10,10,3,,0.00,0,,177
2012-12-25,77,66,55,60,57,53,93,74,48,30.04,29.97,29.90,10,10,10,10,2,17,0.00,0,,144
2012-12-26,80,70,60,71,62,53,93,80,67,30.02,29.92,29.84,10,10,2,28,9,37,0.11,5,Rain,273
2012-12-27,69,60,50,52,47,41,89,69,36,30.09,30.04,30.01,10,10,10,9,3,,0.00,0,,8
2012-12-28,73,60,48,68,57,44,90,79,63,30.08,30.01,29.95,10,10,5,10,5,,0.01,5,Rain,90
2012-12-29,79,68,55,72,67,50,94,85,73,30.16,29.99,29.92,10,10,9,20,11,25,0.00,4,,241
2012-12-30,62,53,44,49,42,35,83,67,43,30.32,30.26,30.16,10,10,10,17,10,22,0.00,0,,29
2012-12-31,75,60,46,56,51,45,93,73,48,30.30,30.24,30.17,10,10,9,16,5,21,0.00,1,,85